Time;durP1;ratioP1;P1;durP2;ratioP2;P2;SDS_P1;SDS_P2;PMS_P1;PMS_P2;Temp;Humidity;BMP_temperature;BMP_pressure;BME280_temperature;BME280_humidity;BME280_pressure;Samples;Min_cycle;Max_cycle;Signal;HPM_P1;HPM_P2
2021/03/14 00:00:13;;;;;;;1475.25;999.90;;;;;;;;;;5081807;28;20056;-66
2021/03/14 00:02:40;;;;;;;365.30;327.40;;;;;;;;;;5079990;28;20425;-66
2021/03/14 00:05:06;;;;;;;369.17;331.25;;;;;;;;;;5071669;28;20045;-67
2021/03/14 00:07:32;;;;;;;351.10;314.07;;;;;;;;;;5072456;28;20067;-66
2021/03/14 00:09:58;;;;;;;352.38;315.27;;;;;;;;;;5070591;28;20287;-67
2021/03/14 00:12:24;;;;;;;375.55;337.60;;;;;;;;;;5072613;28;20033;-66
2021/03/14 00:14:51;;;;;;;1924.85;999.90;;;;;;;;;;5080540;28;20497;-67
2021/03/14 00:17:17;;;;;;;950.97;849.67;;;;;;;;;;5065638;28;20047;-68
2021/03/14 00:19:43;;;;;;;367.05;329.13;;;;;;;;;;5071859;28;20492;-68
2021/03/14 00:22:09;;;;;;;1472.60;999.90;;;;;;;;;;5070700;28;20032;-67
2021/03/14 00:24:35;;;;;;;1930.03;999.90;;;;;;;;;;5070781;28;20020;-66
2021/03/14 00:27:01;;;;;;;1924.28;999.90;;;;;;;;;;5071159;28;20369;-67
2021/03/14 00:29:27;;;;;;;1930.18;999.90;;;;;;;;;;5066272;28;20048;-66
2021/03/14 00:31:53;;;;;;;1477.85;999.90;;;;;;;;;;5066230;28;20041;-66
2021/03/14 00:34:19;;;;;;;382.42;344.00;;;;;;;;;;5075036;28;20045;-67
2021/03/14 00:36:45;;;;;;;1478.30;999.90;;;;;;;;;;5075369;28;20389;-68
2021/03/14 00:39:11;;;;;;;363.63;326.17;;;;;;;;;;5083220;28;20162;-68
2021/03/14 00:41:37;;;;;;;326.58;290.33;;;;;;;;;;5069909;28;20433;-68
2021/03/14 00:44:03;;;;;;;1930.60;999.90;;;;;;;;;;5070043;28;20052;-67
2021/03/14 00:46:30;;;;;;;1479.60;999.90;;;;;;;;;;5077820;28;20033;-68
2021/03/14 00:48:56;;;;;;;381.42;343.17;;;;;;;;;;5084963;28;20115;-68
2021/03/14 00:51:24;;;;;;;385.85;347.27;;;;;;;;;;5071689;28;20500;-68
2021/03/14 00:53:51;;;;;;;394.55;355.45;;;;;;;;;;5080436;28;20023;-68
2021/03/14 00:56:17;;;;;;;363.77;326.27;;;;;;;;;;5065635;28;20047;-66
2021/03/14 00:58:43;;;;;;;359.08;321.88;;;;;;;;;;5086504;28;20016;-69
2021/03/14 01:01:09;;;;;;;1940.93;999.90;;;;;;;;;;5059623;28;20062;-66
2021/03/14 01:03:35;;;;;;;374.80;336.13;;;;;;;;;;5055196;28;20481;-70
2021/03/14 01:06:01;;;;;;;1944.75;999.90;;;;;;;;;;5052033;28;20020;-67
2021/03/14 01:08:27;;;;;;;419.08;378.35;;;;;;;;;;5054677;28;20384;-66
2021/03/14 01:10:55;;;;;;;377.92;339.63;;;;;;;;;;5054783;28;20090;-66
2021/03/14 01:13:21;;;;;;;347.30;310.02;;;;;;;;;;5056317;28;20030;-66
2021/03/14 01:15:47;;;;;;;1479.85;999.90;;;;;;;;;;5053761;28;22434;-67
2021/03/14 01:18:13;;;;;;;370.27;331.88;;;;;;;;;;5055304;28;20035;-67
2021/03/14 01:20:39;;;;;;;1442.82;999.90;;;;;;;;;;5053449;28;20063;-68
2021/03/14 01:23:05;;;;;;;365.40;327.42;;;;;;;;;;5054820;28;20405;-67
2021/03/14 01:25:31;;;;;;;355.20;317.67;;;;;;;;;;5052407;28;20033;-66
2021/03/14 01:27:57;;;;;;;1945.20;999.90;;;;;;;;;;5053933;28;20020;-67
2021/03/14 01:30:23;;;;;;;372.85;334.08;;;;;;;;;;5053639;28;20484;-69
2021/03/14 01:32:49;;;;;;;359.38;321.55;;;;;;;;;;5053346;28;20139;-68
2021/03/14 01:35:16;;;;;;;361.23;323.52;;;;;;;;;;5053464;28;20033;-66
2021/03/14 01:37:42;;;;;;;373.98;335.58;;;;;;;;;;5053947;28;20108;-66
2021/03/14 01:40:10;;;;;;;371.23;333.10;;;;;;;;;;5054302;28;20391;-66
2021/03/14 01:42:36;;;;;;;1484.28;999.90;;;;;;;;;;5054273;28;20075;-69
2021/03/14 01:45:03;;;;;;;365.08;327.17;;;;;;;;;;5053134;28;20503;-66
2021/03/14 01:47:32;;;;;;;1956.03;999.90;;;;;;;;;;5054771;28;20028;-67
2021/03/14 01:49:58;;;;;;;363.30;325.33;;;;;;;;;;5056770;28;20024;-66
2021/03/14 01:52:24;;;;;;;396.33;357.10;;;;;;;;;;5054219;28;20043;-66
2021/03/14 01:54:50;;;;;;;358.23;320.40;;;;;;;;;;5055574;28;20028;-66
2021/03/14 01:57:16;;;;;;;391.77;352.85;;;;;;;;;;5056098;28;20020;-67
2021/03/14 01:59:43;;;;;;;387.70;346.80;;;;;;;;;;5056421;28;20481;-66
2021/03/14 02:02:09;;;;;;;372.35;334.17;;;;;;;;;;5055933;28;20028;-66
2021/03/14 02:04:35;;;;;;;358.95;321.17;;;;;;;;;;5065739;28;20020;-67
2021/03/14 02:07:01;;;;;;;346.27;308.75;;;;;;;;;;5066034;28;20032;-67
2021/03/14 02:09:27;;;;;;;1480.63;999.90;;;;;;;;;;5080183;28;20098;-65
2021/03/14 02:11:54;;;;;;;877.47;783.60;;;;;;;;;;5080975;28;20480;-67
2021/03/14 02:14:20;;;;;;;351.10;313.73;;;;;;;;;;5078520;28;20032;-67
2021/03/14 02:16:48;;;;;;;388.10;349.48;;;;;;;;;;5080225;28;20415;-67
2021/03/14 02:19:17;;;;;;;367.38;329.10;;;;;;;;;;5081939;28;20028;-67
2021/03/14 02:21:44;;;;;;;375.27;336.80;;;;;;;;;;5080466;28;20476;-66
2021/03/14 02:24:18;;;;;;;374.95;336.83;;;;;;;;;;5089604;28;20028;-67
2021/03/14 02:26:44;;;;;;;386.27;347.77;;;;;;;;;;5080623;28;20027;-67
2021/03/14 02:29:16;;;;;;;354.90;317.38;;;;;;;;;;5090364;28;20384;-67
2021/03/14 02:31:44;;;;;;;325.23;286.25;;;;;;;;;;5084704;28;20043;-67
2021/03/14 02:34:12;;;;;;;361.88;323.90;;;;;;;;;;5088583;28;20024;-67
2021/03/14 02:36:40;;;;;;;375.95;337.15;;;;;;;;;;5085410;28;20366;-67
2021/03/14 02:39:07;;;;;;;347.45;310.48;;;;;;;;;;5064943;28;20047;-66
2021/03/14 02:41:34;;;;;;;391.50;352.25;;;;;;;;;;5070577;28;20032;-66
2021/03/14 02:44:00;;;;;;;368.53;330.73;;;;;;;;;;5073303;28;20020;-66
2021/03/14 02:46:28;;;;;;;363.85;326.17;;;;;;;;;;5077010;28;20480;-67
2021/03/14 02:48:55;;;;;;;1958.38;999.90;;;;;;;;;;5079994;28;20032;-66
2021/03/14 02:51:21;;;;;;;372.73;334.48;;;;;;;;;;5069449;28;20030;-66
2021/03/14 02:53:48;;;;;;;356.50;318.77;;;;;;;;;;5074925;28;20060;-66
2021/03/14 02:56:14;;;;;;;353.85;316.38;;;;;;;;;;5072595;28;20146;-66
2021/03/14 02:58:40;;;;;;;378.92;340.35;;;;;;;;;;5084415;28;20049;-68
2021/03/14 03:01:07;;;;;;;1477.00;999.90;;;;;;;;;;5079010;28;20035;-66
2021/03/14 03:03:34;;;;;;;370.40;332.33;;;;;;;;;;5086208;28;20051;-66
2021/03/14 03:06:01;;;;;;;321.38;272.88;;;;;;;;;;5077207;28;20025;-67
2021/03/14 03:08:29;;;;;;;368.75;330.77;;;;;;;;;;5086350;28;20484;-67
2021/03/14 03:10:57;;;;;;;1479.65;999.90;;;;;;;;;;5084992;28;20047;-66
2021/03/14 03:13:23;;;;;;;350.35;313.23;;;;;;;;;;5080955;28;20048;-66
2021/03/14 03:15:50;;;;;;;369.73;331.35;;;;;;;;;;5087118;28;20039;-67
2021/03/14 03:18:16;;;;;;;1479.93;999.90;;;;;;;;;;5075252;28;20061;-66
2021/03/14 03:20:43;;;;;;;1434.15;999.90;;;;;;;;;;5073407;28;20170;-66
2021/03/14 03:23:09;;;;;;;1483.68;999.90;;;;;;;;;;5074408;28;20029;-67
2021/03/14 03:25:35;;;;;;;359.10;321.60;;;;;;;;;;5074435;28;20055;-67
2021/03/14 03:28:01;;;;;;;1479.30;999.90;;;;;;;;;;5071844;28;21164;-66
2021/03/14 03:30:28;;;;;;;352.00;314.75;;;;;;;;;;5074502;28;20036;-66
2021/03/14 03:32:55;;;;;;;385.87;347.13;;;;;;;;;;5071053;28;20056;-67
2021/03/14 03:35:21;;;;;;;1955.93;999.90;;;;;;;;;;5073813;28;20040;-67
2021/03/14 03:37:48;;;;;;;361.02;323.23;;;;;;;;;;5070786;28;20024;-67
2021/03/14 03:40:16;;;;;;;387.52;348.77;;;;;;;;;;5060173;28;20028;-66
2021/03/14 03:42:47;;;;;;;360.15;322.55;;;;;;;;;;5075668;28;20050;-66
2021/03/14 03:45:14;;;;;;;529.03;471.55;;;;;;;;;;5084444;28;20446;-66
2021/03/14 03:47:41;;;;;;;372.52;334.05;;;;;;;;;;5082567;28;20038;-66
2021/03/14 03:50:07;;;;;;;;;;;;;;;;;;5082538;28;20385;-67
2021/03/14 03:52:33;;;;;;;1940.40;999.90;;;;;;;;;;5080704;28;20006;-68
2021/03/14 03:55:00;;;;;;;1946.97;999.90;;;;;;;;;;5086740;28;20126;-67
2021/03/14 03:57:26;;;;;;;372.95;334.67;;;;;;;;;;5086854;28;20414;-71
2021/03/14 03:59:52;;;;;;;1483.75;999.90;;;;;;;;;;5081167;28;20036;-67
2021/03/14 04:02:19;;;;;;;372.80;334.80;;;;;;;;;;5061714;28;20028;-67
2021/03/14 04:04:45;;;;;;;371.50;333.15;;;;;;;;;;5080101;28;20066;-67
2021/03/14 04:07:12;;;;;;;1949.45;999.90;;;;;;;;;;5083396;28;20064;-67
2021/03/14 04:09:38;;;;;;;1479.95;999.90;;;;;;;;;;5086441;28;20029;-68
2021/03/14 04:12:05;;;;;;;352.08;314.88;;;;;;;;;;5072388;28;20025;-68
2021/03/14 04:14:32;;;;;;;1950.85;999.90;;;;;;;;;;5090586;28;20085;-67
2021/03/14 04:16:59;;;;;;;393.58;354.58;;;;;;;;;;5071510;28;20540;-68
2021/03/14 04:19:28;;;;;;;1481.70;999.90;;;;;;;;;;5079095;28;20074;-67
2021/03/14 04:21:55;;;;;;;1479.95;999.90;;;;;;;;;;5072410;28;20025;-66
2021/03/14 04:24:22;;;;;;;1947.55;999.90;;;;;;;;;;5080393;28;20044;-65
2021/03/14 04:26:48;;;;;;;1937.38;999.90;;;;;;;;;;5078065;28;20032;-69
2021/03/14 04:29:15;;;;;;;1929.03;999.90;;;;;;;;;;5070209;28;20042;-67
2021/03/14 04:31:43;;;;;;;1932.13;999.90;;;;;;;;;;5077375;28;20036;-66
2021/03/14 04:34:16;;;;;;;1482.32;999.90;;;;;;;;;;5074826;28;20024;-66
2021/03/14 04:36:42;;;;;;;362.90;325.15;;;;;;;;;;5078023;28;20059;-67
2021/03/14 04:39:09;;;;;;;352.50;315.20;;;;;;;;;;5075545;28;20027;-67
2021/03/14 04:41:36;;;;;;;1485.00;999.90;;;;;;;;;;5076887;28;20045;-68
2021/03/14 04:44:03;;;;;;;398.35;358.95;;;;;;;;;;5081365;28;20024;-66
2021/03/14 04:46:29;;;;;;;380.55;342.23;;;;;;;;;;5083493;28;20028;-66
2021/03/14 04:48:58;;;;;;;382.73;344.35;;;;;;;;;;5090374;28;20081;-66
2021/03/14 04:51:26;;;;;;;1476.97;999.90;;;;;;;;;;5065393;28;20021;-68
2021/03/14 04:53:52;;;;;;;377.10;338.83;;;;;;;;;;5076974;28;20059;-68
2021/03/14 04:56:18;;;;;;;372.20;334.17;;;;;;;;;;5078403;28;20115;-68
2021/03/14 04:58:45;;;;;;;360.48;322.88;;;;;;;;;;5075681;28;20135;-67
2021/03/14 05:01:12;;;;;;;1949.07;999.90;;;;;;;;;;5084336;28;20042;-69
2021/03/14 05:03:38;;;;;;;363.97;325.97;;;;;;;;;;5073259;28;20036;-68
2021/03/14 05:06:05;;;;;;;386.77;348.15;;;;;;;;;;5071355;28;20325;-68
2021/03/14 05:08:31;;;;;;;1479.72;999.90;;;;;;;;;;5067355;28;20550;-67
2021/03/14 05:10:57;;;;;;;372.55;334.45;;;;;;;;;;5080271;28;20125;-68
2021/03/14 05:13:23;;;;;;;343.77;306.70;;;;;;;;;;5074870;28;20024;-68
2021/03/14 05:15:51;;;;;;;818.60;731.00;;;;;;;;;;5066336;28;20048;-68
2021/03/14 05:18:17;;;;;;;;;;;;;;;;;;5073230;28;20028;-67
2021/03/14 05:20:43;;;;;;;370.75;332.27;;;;;;;;;;5069828;28;20236;-67
2021/03/14 05:23:09;;;;;;;379.20;340.67;;;;;;;;;;5073905;28;20101;-67
2021/03/14 05:25:35;;;;;;;385.45;346.70;;;;;;;;;;5075065;28;20104;-68
2021/03/14 05:28:03;;;;;;;1938.65;999.90;;;;;;;;;;5064104;28;20031;-68
2021/03/14 05:30:34;;;;;;;366.63;328.73;;;;;;;;;;5075418;28;20508;-68
2021/03/14 05:33:00;;;;;;;329.05;290.05;;;;;;;;;;5075015;28;20043;-66
2021/03/14 05:35:27;;;;;;;329.67;292.75;;;;;;;;;;5074540;28;20040;-67
2021/03/14 05:37:57;;;;;;;367.60;329.70;;;;;;;;;;5069328;28;20025;-66
2021/03/14 05:40:24;;;;;;;1938.95;999.90;;;;;;;;;;5081226;28;20032;-67
2021/03/14 05:42:50;;;;;;;334.38;297.58;;;;;;;;;;5075186;28;20028;-67
2021/03/14 05:45:17;;;;;;;368.20;330.50;;;;;;;;;;5082894;28;20042;-68
2021/03/14 05:47:43;;;;;;;342.52;305.92;;;;;;;;;;5075384;28;20062;-67
2021/03/14 05:50:10;;;;;;;1471.20;999.90;;;;;;;;;;5079845;28;20033;-67
2021/03/14 05:52:39;;;;;;;346.42;308.85;;;;;;;;;;5076679;28;20028;-67
2021/03/14 05:55:06;;;;;;;372.80;334.25;;;;;;;;;;5071222;28;20529;-68
2021/03/14 05:57:33;;;;;;;374.15;335.90;;;;;;;;;;5073462;28;20078;-67
2021/03/14 06:00:00;;;;;;;354.17;316.77;;;;;;;;;;5087875;28;20036;-69
2021/03/14 06:02:27;;;;;;;375.30;337.20;;;;;;;;;;5075005;28;20040;-68
2021/03/14 06:04:53;;;;;;;342.38;305.27;;;;;;;;;;5071542;28;20029;-69
2021/03/14 06:07:19;;;;;;;341.02;304.35;;;;;;;;;;5076119;28;20040;-68
2021/03/14 06:09:45;;;;;;;334.70;298.45;;;;;;;;;;5076501;28;20029;-72
2021/03/14 06:12:11;;;;;;;1000.65;894.20;;;;;;;;;;5076690;28;20370;-67
2021/03/14 06:14:38;;;;;;;1941.35;999.90;;;;;;;;;;5077234;28;20031;-67
2021/03/14 06:17:04;;;;;;;1925.63;999.90;;;;;;;;;;5076492;28;20025;-67
2021/03/14 06:19:30;;;;;;;374.73;336.38;;;;;;;;;;5082492;28;20032;-67
2021/03/14 06:22:15;;;;;;;1473.85;999.90;;;;;;;;;;5074995;28;20055;-69
2021/03/14 06:24:41;;;;;;;380.55;342.58;;;;;;;;;;5081154;28;20029;-67
2021/03/14 06:27:07;;;;;;;1483.85;999.90;;;;;;;;;;5083855;28;20028;-67
2021/03/14 06:29:33;;;;;;;1947.20;999.90;;;;;;;;;;5082096;28;20085;-66
2021/03/14 06:32:00;;;;;;;367.98;329.83;;;;;;;;;;5085942;28;20040;-67
2021/03/14 06:34:37;;;;;;;359.90;322.80;;;;;;;;;;5084014;28;20503;-66
2021/03/14 06:37:16;;;;;;;358.50;320.93;;;;;;;;;;5066000;28;20029;-66
2021/03/14 06:39:44;;;;;;;344.25;307.35;;;;;;;;;;5062136;28;20028;-67
2021/03/14 06:42:10;;;;;;;;;;;;;;;;;;5080963;28;20365;-68
2021/03/14 06:44:37;;;;;;;364.45;326.85;;;;;;;;;;5088469;28;19958;-67
2021/03/14 06:47:04;;;;;;;360.35;322.88;;;;;;;;;;5086649;28;20096;-66
2021/03/14 06:49:35;;;;;;;358.15;320.77;;;;;;;;;;5082892;28;20056;-66
2021/03/14 06:52:01;;;;;;;363.08;326.15;;;;;;;;;;5072001;28;20059;-66
2021/03/14 06:54:27;;;;;;;1937.57;999.90;;;;;;;;;;5075010;28;20537;-67
2021/03/14 06:57:08;;;;;;;1939.05;999.90;;;;;;;;;;5066411;28;20103;-66
2021/03/14 06:59:35;;;;;;;1483.10;999.90;;;;;;;;;;5074131;28;20024;-66
2021/03/14 07:02:05;;;;;;;362.45;325.10;;;;;;;;;;5071728;28;20115;-66
2021/03/14 07:04:32;;;;;;;1941.25;999.90;;;;;;;;;;5070219;28;20052;-67
2021/03/14 07:06:59;;;;;;;1934.13;999.90;;;;;;;;;;5073255;28;20441;-67
2021/03/14 07:09:25;;;;;;;350.42;313.67;;;;;;;;;;5073953;28;20037;-67
2021/03/14 07:11:51;;;;;;;345.48;308.90;;;;;;;;;;5073025;28;20028;-66
2021/03/14 07:14:18;;;;;;;1482.10;999.90;;;;;;;;;;5074588;28;20028;-67
2021/03/14 07:16:51;;;;;;;342.98;306.35;;;;;;;;;;5073588;28;20058;-66
2021/03/14 07:19:21;;;;;;;1937.95;999.90;;;;;;;;;;5073380;28;20037;-67
2021/03/14 07:21:56;;;;;;;323.50;287.42;;;;;;;;;;5072127;28;20055;-66
2021/03/14 07:24:28;;;;;;;347.45;310.83;;;;;;;;;;5074150;28;20483;-66
2021/03/14 07:26:54;;;;;;;1925.47;999.90;;;;;;;;;;5072697;28;20025;-66
2021/03/14 07:29:20;;;;;;;1191.85;999.90;;;;;;;;;;5074369;28;20033;-67
2021/03/14 07:31:47;;;;;;;1476.43;999.90;;;;;;;;;;5068377;28;20496;-66
2021/03/14 07:34:13;;;;;;;371.27;334.05;;;;;;;;;;5079925;28;20021;-67
2021/03/14 07:36:39;;;;;;;312.83;267.33;;;;;;;;;;5074263;28;20036;-67
2021/03/14 07:39:05;;;;;;;317.70;279.83;;;;;;;;;;5080065;28;20035;-67
2021/03/14 07:41:31;;;;;;;326.42;290.98;;;;;;;;;;5074485;28;20039;-67
2021/03/14 07:43:58;;;;;;;345.02;308.58;;;;;;;;;;5080616;28;20454;-67
2021/03/14 07:46:25;;;;;;;319.60;284.35;;;;;;;;;;5077507;28;20029;-67
2021/03/14 07:48:52;;;;;;;344.42;308.15;;;;;;;;;;5076785;28;20031;-67
2021/03/14 07:51:20;;;;;;;304.00;249.27;;;;;;;;;;5069050;28;20071;-67
2021/03/14 07:53:46;;;;;;;322.17;285.45;;;;;;;;;;5076306;28;20433;-67
2021/03/14 07:56:12;;;;;;;320.00;282.52;;;;;;;;;;5076421;28;20075;-67
2021/03/14 07:58:38;;;;;;;357.52;320.10;;;;;;;;;;5087071;28;20107;-67
2021/03/14 08:01:24;;;;;;;368.70;331.00;;;;;;;;;;5075402;28;20029;-68
2021/03/14 08:03:52;;;;;;;379.80;341.73;;;;;;;;;;5079590;28;20427;-67
2021/03/14 08:06:18;;;;;;;371.15;333.58;;;;;;;;;;5082069;28;20054;-67
2021/03/14 08:08:44;;;;;;;332.85;296.48;;;;;;;;;;5087764;28;20035;-67
2021/03/14 08:11:24;;;;;;;330.88;294.90;;;;;;;;;;5083546;28;20020;-68
2021/03/14 08:13:50;;;;;;;1925.97;999.90;;;;;;;;;;5091714;28;20067;-68
2021/03/14 08:16:16;;;;;;;1469.13;999.90;;;;;;;;;;5076489;28;20036;-67
2021/03/14 08:18:42;;;;;;;348.27;311.52;;;;;;;;;;5089333;28;20069;-68
2021/03/14 08:21:20;;;;;;;325.60;288.45;;;;;;;;;;5083257;28;20020;-67
2021/03/14 08:23:56;;;;;;;346.65;310.38;;;;;;;;;;5059829;28;20028;-68
2021/03/14 08:26:23;;;;;;;373.05;335.63;;;;;;;;;;5069913;28;20052;-67
2021/03/14 08:29:09;;;;;;;1927.55;999.90;;;;;;;;;;5074199;28;20119;-69
2021/03/14 08:31:52;;;;;;;1916.93;999.90;;;;;;;;;;5061742;28;20050;-67
2021/03/14 08:34:18;;;;;;;335.27;298.67;;;;;;;;;;5065699;28;20037;-68
2021/03/14 08:36:45;;;;;;;372.05;334.20;;;;;;;;;;5070873;28;20032;-67
2021/03/14 08:39:20;;;;;;;1928.57;999.90;;;;;;;;;;5071233;28;20033;-67
2021/03/14 08:41:57;;;;;;;371.52;333.52;;;;;;;;;;5069950;28;20502;-67
2021/03/14 08:44:34;;;;;;;336.10;299.48;;;;;;;;;;5061518;28;20034;-67
2021/03/14 08:47:01;;;;;;;344.95;308.80;;;;;;;;;;5070448;28;20494;-67
2021/03/14 08:49:29;;;;;;;326.15;290.33;;;;;;;;;;5072838;28;20035;-67
2021/03/14 08:51:55;;;;;;;337.38;301.25;;;;;;;;;;5070723;28;20496;-67
2021/03/14 08:54:29;;;;;;;1474.03;999.90;;;;;;;;;;5072797;28;20017;-68
2021/03/14 08:56:57;;;;;;;1925.07;999.90;;;;;;;;;;5068054;28;20063;-67
2021/03/14 08:59:24;;;;;;;1467.93;999.90;;;;;;;;;;5065220;28;20056;-68
2021/03/14 09:01:55;;;;;;;349.67;313.07;;;;;;;;;;5070741;28;20032;-67
2021/03/14 09:04:27;;;;;;;325.75;289.92;;;;;;;;;;5072236;28;20031;-66
2021/03/14 09:06:53;;;;;;;1919.97;999.90;;;;;;;;;;5071012;28;20480;-67
2021/03/14 09:09:21;;;;;;;1465.57;999.90;;;;;;;;;;5072740;28;20082;-67
2021/03/14 09:11:51;;;;;;;343.73;307.05;;;;;;;;;;5062011;28;20071;-67
2021/03/14 09:14:20;;;;;;;314.98;273.73;;;;;;;;;;5068914;28;20017;-67
2021/03/14 09:16:46;;;;;;;338.55;302.27;;;;;;;;;;5074832;28;20043;-67
2021/03/14 09:19:22;;;;;;;356.30;319.35;;;;;;;;;;5078052;28;20052;-67
2021/03/14 09:21:49;;;;;;;325.48;289.48;;;;;;;;;;5076635;28;20047;-69
2021/03/14 09:24:44;;;;;;;342.00;305.73;;;;;;;;;;5076921;28;20036;-68
2021/03/14 09:27:12;;;;;;;345.55;308.92;;;;;;;;;;5080596;28;20293;-68
2021/03/14 09:29:38;;;;;;;;;;;;;;;;;;5077781;28;20036;-67
2021/03/14 09:32:05;;;;;;;334.92;298.90;;;;;;;;;;5065947;28;19919;-66
2021/03/14 09:34:31;;;;;;;320.73;285.47;;;;;;;;;;5068112;28;20040;-67
2021/03/14 09:36:57;;;;;;;313.08;267.50;;;;;;;;;;5070305;28;20029;-66
2021/03/14 09:39:24;;;;;;;314.15;264.60;;;;;;;;;;5069897;28;20081;-68
2021/03/14 09:41:50;;;;;;;319.58;280.17;;;;;;;;;;5068967;28;20025;-74
2021/03/14 09:44:19;;;;;;;352.15;315.48;;;;;;;;;;5071175;28;20092;-68
2021/03/14 09:46:55;;;;;;;707.47;633.78;;;;;;;;;;5065725;28;20442;-68
2021/03/14 09:49:21;;;;;;;375.00;337.52;;;;;;;;;;5071820;28;20035;-72
2021/03/14 09:51:52;;;;;;;358.40;321.10;;;;;;;;;;5070047;28;20032;-70
2021/03/14 09:54:18;;;;;;;1925.72;999.90;;;;;;;;;;5069740;28;20048;-67
2021/03/14 09:56:49;;;;;;;806.45;722.20;;;;;;;;;;5068508;28;20516;-68
2021/03/14 09:59:19;;;;;;;370.25;332.52;;;;;;;;;;5071888;28;20032;-66
2021/03/14 10:01:49;;;;;;;333.13;297.10;;;;;;;;;;5068873;28;20043;-66
2021/03/14 10:04:15;;;;;;;309.45;257.30;;;;;;;;;;5069799;28;20116;-67
2021/03/14 10:06:41;;;;;;;338.05;301.90;;;;;;;;;;5066875;28;20036;-68
2021/03/14 10:09:07;;;;;;;330.42;294.30;;;;;;;;;;5072098;28;20027;-68
2021/03/14 10:11:33;;;;;;;314.33;267.90;;;;;;;;;;5069504;28;20528;-66
2021/03/14 10:13:59;;;;;;;367.75;330.58;;;;;;;;;;5071732;28;20032;-68
2021/03/14 10:16:25;;;;;;;341.67;305.33;;;;;;;;;;5067563;28;20032;-69
2021/03/14 10:18:57;;;;;;;316.05;273.10;;;;;;;;;;5063637;28;20032;-68
2021/03/14 10:21:26;;;;;;;320.70;284.77;;;;;;;;;;5073396;28;20052;-66
2021/03/14 10:23:53;;;;;;;355.83;318.55;;;;;;;;;;5082273;28;20024;-67
2021/03/14 10:26:20;;;;;;;361.33;323.90;;;;;;;;;;5075930;28;20036;-67
2021/03/14 10:28:47;;;;;;;359.95;322.35;;;;;;;;;;5090263;28;20032;-67
2021/03/14 10:31:14;;;;;;;365.00;327.00;;;;;;;;;;5070267;28;20524;-67
2021/03/14 10:33:42;;;;;;;346.97;310.33;;;;;;;;;;5082506;28;20028;-67
2021/03/14 10:36:09;;;;;;;353.60;316.23;;;;;;;;;;5076471;28;20307;-68
2021/03/14 10:38:35;;;;;;;;;;;;;;;;;;5071123;28;20044;-67
2021/03/14 10:41:09;;;;;;;325.92;290.38;;;;;;;;;;5070505;28;19908;-70
2021/03/14 10:43:43;;;;;;;358.98;322.05;;;;;;;;;;5073642;28;20028;-67
2021/03/14 10:46:09;;;;;;;347.38;310.42;;;;;;;;;;5072774;28;20059;-67
2021/03/14 10:48:35;;;;;;;1912.78;999.90;;;;;;;;;;5078519;28;20048;-67
2021/03/14 10:51:02;;;;;;;1913.05;999.90;;;;;;;;;;5079668;28;20481;-67
2021/03/14 10:53:28;;;;;;;348.65;311.65;;;;;;;;;;5074536;28;20031;-67
2021/03/14 10:56:01;;;;;;;691.53;617.05;;;;;;;;;;5070369;28;20028;-70
2021/03/14 10:58:34;;;;;;;368.10;330.25;;;;;;;;;;5074818;28;20048;-70
2021/03/14 11:01:01;;;;;;;448.92;401.35;;;;;;;;;;5072037;28;20040;-68
2021/03/14 11:03:28;;;;;;;354.58;317.35;;;;;;;;;;5079156;28;20025;-70
2021/03/14 11:06:07;;;;;;;383.05;344.58;;;;;;;;;;5076085;28;20622;-69
2021/03/14 11:08:49;;;;;;;375.52;337.63;;;;;;;;;;5081274;28;20145;-70
2021/03/14 11:11:15;;;;;;;340.10;303.40;;;;;;;;;;5080175;28;20020;-68
2021/03/14 11:13:41;;;;;;;366.15;328.20;;;;;;;;;;5076764;28;20107;-70
2021/03/14 11:16:08;;;;;;;358.92;321.33;;;;;;;;;;5078573;28;20036;-73
2021/03/14 11:18:34;;;;;;;324.70;288.10;;;;;;;;;;5079864;28;20035;-74
2021/03/14 11:21:02;;;;;;;316.30;257.38;;;;;;;;;;5077798;28;20032;-72
2021/03/14 11:23:28;;;;;;;303.50;235.38;;;;;;;;;;5091855;28;20069;-73
2021/03/14 11:25:54;;;;;;;323.65;284.83;;;;;;;;;;5085862;28;20044;-69
2021/03/14 11:28:21;;;;;;;320.88;281.88;;;;;;;;;;5073811;28;20024;-72
2021/03/14 11:30:47;;;;;;;354.67;317.48;;;;;;;;;;5072338;28;20040;-71
2021/03/14 11:33:13;;;;;;;311.45;253.98;;;;;;;;;;5074274;28;20492;-73
2021/03/14 11:35:39;;;;;;;313.98;268.80;;;;;;;;;;5073220;28;20476;-72
2021/03/14 11:38:05;;;;;;;309.45;251.55;;;;;;;;;;5073579;28;20025;-74
2021/03/14 11:40:32;;;;;;;352.08;314.90;;;;;;;;;;5073469;28;20036;-73
2021/03/14 11:42:58;;;;;;;377.03;339.00;;;;;;;;;;5072038;28;20029;-70
2021/03/14 11:45:24;;;;;;;646.88;577.83;;;;;;;;;;5069572;28;20315;-74
2021/03/14 11:47:50;;;;;;;378.80;340.70;;;;;;;;;;5070518;28;20105;-73
2021/03/14 11:50:16;;;;;;;330.17;293.35;;;;;;;;;;5064466;28;20029;-73
2021/03/14 11:52:46;;;;;;;388.02;349.60;;;;;;;;;;5079568;28;20492;-74
2021/03/14 11:55:12;;;;;;;328.48;289.63;;;;;;;;;;5080451;28;20024;-69
2021/03/14 11:57:38;;;;;;;331.20;294.90;;;;;;;;;;5074704;28;20391;-74
2021/03/14 12:00:05;;;;;;;362.88;325.35;;;;;;;;;;5075364;28;20024;-68
2021/03/14 12:02:31;;;;;;;338.67;302.10;;;;;;;;;;5080528;28;20039;-68
2021/03/14 12:04:57;;;;;;;336.42;300.25;;;;;;;;;;5079599;28;20048;-70
2021/03/14 12:07:25;;;;;;;363.60;325.58;;;;;;;;;;5071540;28;20085;-69
2021/03/14 12:09:51;;;;;;;323.15;274.88;;;;;;;;;;5085424;28;20495;-67
2021/03/14 12:12:17;;;;;;;317.60;267.73;;;;;;;;;;5082848;28;20480;-68
2021/03/14 12:14:43;;;;;;;359.52;322.02;;;;;;;;;;5070501;28;20081;-69
2021/03/14 12:17:10;;;;;;;360.33;322.17;;;;;;;;;;5089346;28;20028;-68
2021/03/14 12:19:36;;;;;;;344.40;307.40;;;;;;;;;;5084575;28;20028;-69
2021/03/14 12:22:02;;;;;;;334.52;297.98;;;;;;;;;;5065612;28;20391;-71
2021/03/14 12:24:28;;;;;;;321.15;278.80;;;;;;;;;;5072858;28;20082;-68
2021/03/14 12:26:54;;;;;;;351.90;314.42;;;;;;;;;;5065265;28;20035;-70
2021/03/14 12:29:20;;;;;;;331.88;287.05;;;;;;;;;;5062971;28;21687;-68
2021/03/14 12:31:46;;;;;;;359.15;321.35;;;;;;;;;;5061009;28;20503;-68
2021/03/14 12:34:12;;;;;;;344.20;307.15;;;;;;;;;;5062766;28;20544;-68
2021/03/14 12:36:38;;;;;;;355.40;317.65;;;;;;;;;;5061227;28;20041;-69
2021/03/14 12:39:05;;;;;;;340.95;304.02;;;;;;;;;;5063169;28;20020;-69
2021/03/14 12:41:32;;;;;;;326.58;285.00;;;;;;;;;;5058555;28;20070;-68
2021/03/14 12:43:59;;;;;;;363.67;325.65;;;;;;;;;;5062220;28;20468;-69
2021/03/14 12:46:25;;;;;;;334.23;297.70;;;;;;;;;;5060516;28;20032;-70
2021/03/14 12:48:51;;;;;;;341.60;305.08;;;;;;;;;;5065371;28;21027;-70
2021/03/14 12:51:17;;;;;;;333.77;297.13;;;;;;;;;;5078384;28;20118;-69
2021/03/14 12:53:43;;;;;;;349.90;312.67;;;;;;;;;;5063461;28;20052;-69
2021/03/14 12:56:09;;;;;;;377.15;338.67;;;;;;;;;;5083531;28;20066;-69
2021/03/14 12:58:35;;;;;;;358.77;321.38;;;;;;;;;;5078028;28;20028;-70
2021/03/14 13:01:01;;;;;;;355.15;317.77;;;;;;;;;;5084135;28;20040;-69
2021/03/14 13:03:27;;;;;;;331.52;294.73;;;;;;;;;;5074026;28;20043;-70
2021/03/14 13:05:53;;;;;;;379.73;341.27;;;;;;;;;;5076851;28;20043;-69
2021/03/14 13:08:19;;;;;;;348.38;311.42;;;;;;;;;;5071459;28;20701;-69
2021/03/14 13:10:45;;;;;;;355.92;318.27;;;;;;;;;;5070025;28;20582;-69
2021/03/14 13:13:11;;;;;;;355.33;317.90;;;;;;;;;;5075599;28;20050;-69
2021/03/14 13:15:37;;;;;;;341.83;304.85;;;;;;;;;;5071644;28;20032;-69
2021/03/14 13:18:04;;;;;;;359.58;322.20;;;;;;;;;;5070488;28;20028;-69
2021/03/14 13:20:30;;;;;;;366.38;328.35;;;;;;;;;;5069348;28;20036;-69
2021/03/14 13:22:56;;;;;;;340.95;304.23;;;;;;;;;;5070529;28;20028;-69
2021/03/14 13:25:25;;;;;;;326.63;288.45;;;;;;;;;;5065589;28;20450;-69
2021/03/14 13:27:51;;;;;;;351.20;313.92;;;;;;;;;;5069894;28;20384;-69
2021/03/14 13:30:17;;;;;;;364.98;327.48;;;;;;;;;;5070889;28;20029;-69
2021/03/14 13:32:44;;;;;;;359.58;321.88;;;;;;;;;;5069836;28;20037;-69
2021/03/14 13:35:10;;;;;;;321.93;275.17;;;;;;;;;;5073889;28;20033;-69
2021/03/14 13:37:36;;;;;;;348.08;310.75;;;;;;;;;;5067037;28;20044;-69
2021/03/14 13:40:03;;;;;;;364.48;326.58;;;;;;;;;;5071144;28;20078;-69
2021/03/14 13:42:29;;;;;;;351.17;313.67;;;;;;;;;;5071389;28;20078;-69
2021/03/14 13:44:55;;;;;;;335.98;299.23;;;;;;;;;;5077067;28;20024;-69
2021/03/14 13:47:21;;;;;;;326.08;278.52;;;;;;;;;;5079660;28;20043;-69
2021/03/14 13:49:47;;;;;;;362.25;324.15;;;;;;;;;;5069724;28;20028;-70
2021/03/14 13:52:13;;;;;;;332.27;293.50;;;;;;;;;;5075796;28;20062;-69